Cooma Visitors Centre, New South Wales

1:37 PM AEST on September 29, 2016 (GMT +1000)
Top of Alkoomi | | Change Station

Elev 2792 ft 36.23 °S, 149.13 °E | Updated 3 seconds ago

Scattered Clouds
Scattered Clouds
55.4 °F
Feels Like 55.4 °F
N
8.7
Wind Variable Wind from WNW
Gusts 12.3 mph

Today
High -- | Low -- °F
--% Chance of Precip.
Yesterday
High -- | Low -- °F
Precip. -- in
Pressure 29.30 in
Visibility 6.2 miles
Clouds Scattered Clouds 3600 ft
Scattered Clouds 4300 ft
Dew Point 38 °F
Humidity 51%
Rainfall 0.17 in
Snow Depth Not available.
5:42 AM 6:05 PM
Waning Crescent, 3% visible
SPECI YCOM 290330Z AUTO 33023G33KT 9999 // SCT036 SCT043 10/03 Q0992
Pressure 29.30 in
Visibility 6.2 miles
Clouds Scattered Clouds 3600 ft
Scattered Clouds 4300 ft
Dew Point 38 °F
Humidity 51%
Rainfall 0.17 in
Snow Depth Not available.
5:42 AM 6:05 PM
Waning Crescent, 3% visible
SPECI YCOM 290330Z AUTO 33023G33KT 9999 // SCT036 SCT043 10/03 Q0992

10-Day Weather Forecast

Almanac

Astronomy

Sep. 29, 2016 Rise Set
Actual Time
Civil Twilight
Nautical Twilight
Astronomical Twilight
Moon
Length of Visible Light
Length of Day
Tomorrow will be .
, % of the Moon is Illuminated

Today's Extremes

Country Highs Country Lows

Community

WunderPhotos

Upload Photos

1,942,416 photos uploaded!

WunderBlog® & News

Nearby

Air Quality

  Air Quality AQ Index Pollutant
Not available.

Snow Depth

Station Depth Elevation

Earthquake Activity

City Distance Mag. Time & Date
Minimum magnitude displayed is 2.5.

Coastal Water Temperatures

Place Temperature

Stations

Nearby Weather Stations

Station Location Temp. Windchill Dew Point Humidity Wind Precip. Elev Updated Type